Time;durP1;ratioP1;P1;durP2;ratioP2;P2;SDS_P1;SDS_P2;PMS_P1;PMS_P2;Temp;Humidity;BMP_temperature;BMP_pressure;BME280_temperature;BME280_humidity;BME280_pressure;Samples;Min_cycle;Max_cycle;Signal;HPM_P1;HPM_P2
2022/10/25 00:00:55;;;;;;;38.92;8.82;;;;;;;;;;4932327;29;20055;-63
2022/10/25 00:03:22;;;;;;;37.60;9.32;;;;;;;;;;4952030;28;20102;-63
2022/10/25 00:05:49;;;;;;;31.42;8.55;;;;;;;;;;4952944;28;20065;-62
2022/10/25 00:08:17;;;;;;;28.98;8.65;;;;;;;;;;4932637;29;20074;-62
2022/10/25 00:10:44;;;;;;;29.42;8.48;;;;;;;;;;4952199;28;20063;-62
2022/10/25 00:13:11;;;;;;;35.70;8.15;;;;;;;;;;4951521;29;20074;-63
2022/10/25 00:15:38;;;;;;;32.55;9.15;;;;;;;;;;4944326;29;20106;-62
2022/10/25 00:18:07;;;;;;;30.27;8.15;;;;;;;;;;4950199;29;20051;-63
2022/10/25 00:20:37;;;;;;;35.03;8.32;;;;;;;;;;4952600;28;20051;-62
2022/10/25 00:23:04;;;;;;;30.60;8.60;;;;;;;;;;4953056;29;20051;-63
2022/10/25 00:25:32;;;;;;;32.78;8.63;;;;;;;;;;4952614;28;20074;-63
2022/10/25 00:27:59;;;;;;;37.58;9.23;;;;;;;;;;4953529;29;20039;-62
2022/10/25 00:30:27;;;;;;;33.47;9.02;;;;;;;;;;4950946;28;20059;-62
2022/10/25 00:32:54;;;;;;;45.60;11.02;;;;;;;;;;4949440;29;20058;-63
2022/10/25 00:35:22;;;;;;;32.55;9.80;;;;;;;;;;4952470;29;20095;-63
2022/10/25 00:37:50;;;;;;;35.38;10.02;;;;;;;;;;4949644;28;20043;-63
2022/10/25 00:40:17;;;;;;;33.05;9.98;;;;;;;;;;4951908;29;20047;-62
2022/10/25 00:42:45;;;;;;;35.42;11.02;;;;;;;;;;4951364;29;20051;-62
2022/10/25 00:45:19;;;;;;;35.97;11.25;;;;;;;;;;4951693;28;20086;-63
2022/10/25 00:47:48;;;;;;;42.28;12.50;;;;;;;;;;4947994;29;20054;-62
2022/10/25 00:50:19;;;;;;;33.08;11.57;;;;;;;;;;4949595;29;20059;-63
2022/10/25 00:52:49;;;;;;;33.35;13.23;;;;;;;;;;4944477;29;20130;-62
2022/10/25 00:55:18;;;;;;;39.80;12.70;;;;;;;;;;4947052;28;20051;-62
2022/10/25 00:57:48;;;;;;;36.17;13.93;;;;;;;;;;4946598;29;20047;-62
2022/10/25 01:00:15;;;;;;;39.05;13.27;;;;;;;;;;4945892;28;21311;-63
2022/10/25 01:02:43;;;;;;;47.47;14.10;;;;;;;;;;4949108;28;20064;-62
2022/10/25 01:05:11;;;;;;;46.28;14.57;;;;;;;;;;4946860;29;20096;-62
2022/10/25 01:07:38;;;;;;;42.10;14.82;;;;;;;;;;4932835;29;20057;-62
2022/10/25 01:10:07;;;;;;;37.13;13.82;;;;;;;;;;4948668;29;20519;-62
2022/10/25 01:12:35;;;;;;;40.08;13.95;;;;;;;;;;4949110;29;20055;-62
2022/10/25 01:15:02;;;;;;;34.33;14.00;;;;;;;;;;4946260;29;20094;-62
2022/10/25 01:17:33;;;;;;;42.17;14.32;;;;;;;;;;4947594;29;20055;-62
2022/10/25 01:20:18;;;;;;;45.63;14.68;;;;;;;;;;4947968;29;20062;-62
2022/10/25 01:22:49;;;;;;;42.03;14.20;;;;;;;;;;4943476;29;20055;-62
2022/10/25 01:25:25;;;;;;;45.30;14.00;;;;;;;;;;4949739;29;20063;-62
2022/10/25 01:28:00;;;;;;;36.60;12.65;;;;;;;;;;4948983;29;20059;-63
2022/10/25 01:30:31;;;;;;;37.20;13.50;;;;;;;;;;4947896;29;20142;-62
2022/10/25 01:33:06;;;;;;;42.38;13.20;;;;;;;;;;4945014;29;20136;-63
2022/10/25 01:35:36;;;;;;;43.28;13.43;;;;;;;;;;4921957;29;20059;-62
2022/10/25 01:38:08;;;;;;;42.17;13.70;;;;;;;;;;4947123;29;20054;-63
2022/10/25 01:40:40;;;;;;;45.85;14.32;;;;;;;;;;4945881;29;20543;-63
2022/10/25 01:43:09;;;;;;;40.85;14.05;;;;;;;;;;4945944;29;20043;-63
2022/10/25 01:45:41;;;;;;;39.35;13.27;;;;;;;;;;4928760;29;20067;-62
2022/10/25 01:48:14;;;;;;;40.17;13.50;;;;;;;;;;4945046;29;20138;-62
2022/10/25 01:50:41;;;;;;;;;;;;;;;;;;4931515;29;20055;-62
2022/10/25 01:53:09;;;;;;;42.13;13.40;;;;;;;;;;4948643;29;20334;-62
2022/10/25 01:55:39;;;;;;;38.28;13.52;;;;;;;;;;4947704;29;20143;-62
2022/10/25 01:58:10;;;;;;;46.17;14.05;;;;;;;;;;4944200;29;20557;-62
2022/10/25 02:00:41;;;;;;;37.20;12.90;;;;;;;;;;4943915;29;20058;-62
2022/10/25 02:03:14;;;;;;;39.33;13.27;;;;;;;;;;4944941;28;20058;-62
2022/10/25 02:05:49;;;;;;;32.08;13.02;;;;;;;;;;4948059;29;20047;-62
2022/10/25 02:08:19;;;;;;;41.95;13.02;;;;;;;;;;4925921;29;20047;-63
2022/10/25 02:10:51;;;;;;;37.95;13.43;;;;;;;;;;4946426;28;20078;-62
2022/10/25 02:13:22;;;;;;;43.13;13.25;;;;;;;;;;4945782;29;20063;-62
2022/10/25 02:15:54;;;;;;;41.47;13.85;;;;;;;;;;4923838;29;20170;-62
2022/10/25 02:18:25;;;;;;;41.28;13.88;;;;;;;;;;4929933;29;20406;-62
2022/10/25 02:20:53;;;;;;;35.63;13.20;;;;;;;;;;4946595;29;20070;-62
2022/10/25 02:23:21;;;;;;;32.65;11.48;;;;;;;;;;4942893;29;20055;-62
2022/10/25 02:25:48;;;;;;;38.60;12.23;;;;;;;;;;4947901;29;20051;-62
2022/10/25 02:28:17;;;;;;;33.33;10.50;;;;;;;;;;4946563;29;20051;-62
2022/10/25 02:30:45;;;;;;;32.78;10.27;;;;;;;;;;4940301;29;20046;-62
2022/10/25 02:33:12;;;;;;;32.45;9.88;;;;;;;;;;4945982;29;20114;-62
2022/10/25 02:35:41;;;;;;;29.27;9.98;;;;;;;;;;4945067;29;20051;-62
2022/10/25 02:38:08;;;;;;;33.67;9.43;;;;;;;;;;4922305;29;20103;-62
2022/10/25 02:40:36;;;;;;;35.65;9.90;;;;;;;;;;4944637;29;20096;-63
2022/10/25 02:43:03;;;;;;;37.50;10.55;;;;;;;;;;4927100;29;20081;-62
2022/10/25 02:45:30;;;;;;;39.17;12.23;;;;;;;;;;4926892;29;20054;-62
2022/10/25 02:47:57;;;;;;;36.22;12.95;;;;;;;;;;4938988;29;20050;-62
2022/10/25 02:50:25;;;;;;;47.20;16.23;;;;;;;;;;4941716;29;20055;-63
2022/10/25 02:52:53;;;;;;;41.90;13.25;;;;;;;;;;4941879;29;20695;-63
2022/10/25 02:55:20;;;;;;;40.03;13.40;;;;;;;;;;4941203;29;20051;-62
2022/10/25 02:57:47;;;;;;;38.05;13.18;;;;;;;;;;4942658;29;20043;-63
2022/10/25 03:00:15;;;;;;;42.28;12.95;;;;;;;;;;4940727;29;20423;-62
2022/10/25 03:02:42;;;;;;;40.90;12.00;;;;;;;;;;4941534;28;20054;-62
2022/10/25 03:05:10;;;;;;;40.33;12.65;;;;;;;;;;4944149;29;20807;-63
2022/10/25 03:07:37;;;;;;;41.42;11.60;;;;;;;;;;4938056;29;20054;-63
2022/10/25 03:10:06;;;;;;;48.72;11.30;;;;;;;;;;4942855;29;20063;-62
2022/10/25 03:12:33;;;;;;;37.65;10.82;;;;;;;;;;4942065;29;20055;-62
2022/10/25 03:15:01;;;;;;;40.92;11.52;;;;;;;;;;4942183;29;20047;-62
2022/10/25 03:17:28;;;;;;;36.67;10.90;;;;;;;;;;4939526;29;20557;-62
2022/10/25 03:19:55;;;;;;;34.80;9.90;;;;;;;;;;4945695;29;20047;-63
2022/10/25 03:22:22;;;;;;;34.28;10.00;;;;;;;;;;4945497;28;20066;-62
2022/10/25 03:24:49;;;;;;;37.00;9.73;;;;;;;;;;4924846;29;20406;-63
2022/10/25 03:27:18;;;;;;;37.88;10.15;;;;;;;;;;4939839;29;20054;-63
2022/10/25 03:29:45;;;;;;;36.13;9.40;;;;;;;;;;4946338;29;20200;-62
2022/10/25 03:32:12;;;;;;;34.08;10.23;;;;;;;;;;4945900;29;20089;-62
2022/10/25 03:34:39;;;;;;;32.78;9.93;;;;;;;;;;4946048;29;20063;-63
2022/10/25 03:37:07;;;;;;;35.10;9.07;;;;;;;;;;4943845;29;20119;-62
2022/10/25 03:39:34;;;;;;;27.48;8.82;;;;;;;;;;4946664;29;20098;-62
2022/10/25 03:42:01;;;;;;;31.35;8.68;;;;;;;;;;4927833;29;20090;-63
2022/10/25 03:44:30;;;;;;;30.45;8.57;;;;;;;;;;4937533;29;20126;-62
2022/10/25 03:46:57;;;;;;;40.50;8.80;;;;;;;;;;4936300;29;20063;-62
2022/10/25 03:49:25;;;;;;;37.63;8.25;;;;;;;;;;4939342;29;20062;-62
2022/10/25 03:51:52;;;;;;;29.95;7.13;;;;;;;;;;4939505;29;20051;-62
2022/10/25 03:54:19;;;;;;;25.67;6.32;;;;;;;;;;4942511;29;20134;-62
2022/10/25 03:56:46;;;;;;;34.70;7.00;;;;;;;;;;4939608;29;20051;-62
2022/10/25 03:59:13;;;;;;;29.33;5.90;;;;;;;;;;4943142;29;20047;-63
2022/10/25 04:01:42;;;;;;;25.80;5.15;;;;;;;;;;4944039;29;20062;-62
2022/10/25 04:04:09;;;;;;;27.70;5.50;;;;;;;;;;4946024;28;20125;-62
2022/10/25 04:06:36;;;;;;;34.80;5.35;;;;;;;;;;4946117;29;20063;-62
2022/10/25 04:09:04;;;;;;;27.50;4.35;;;;;;;;;;4946297;29;21016;-62
2022/10/25 04:11:31;;;;;;;24.77;4.30;;;;;;;;;;4945334;29;20063;-63
2022/10/25 04:13:58;;;;;;;28.35;3.95;;;;;;;;;;4944981;29;20497;-62
2022/10/25 04:16:25;;;;;;;26.33;3.88;;;;;;;;;;4942887;29;20794;-62
2022/10/25 04:18:54;;;;;;;39.28;4.32;;;;;;;;;;4944087;29;20047;-62
2022/10/25 04:21:22;;;;;;;26.73;4.22;;;;;;;;;;4928155;29;20062;-63
2022/10/25 04:23:50;;;;;;;30.73;3.60;;;;;;;;;;4935971;29;20130;-62
2022/10/25 04:26:18;;;;;;;33.65;3.67;;;;;;;;;;4945402;29;20051;-63
2022/10/25 04:28:49;;;;;;;20.02;3.03;;;;;;;;;;4945075;29;20055;-63
2022/10/25 04:31:17;;;;;;;30.05;2.90;;;;;;;;;;4935891;29;20050;-62
2022/10/25 04:33:44;;;;;;;23.55;3.25;;;;;;;;;;4940817;29;20169;-62
2022/10/25 04:36:12;;;;;;;32.90;3.58;;;;;;;;;;4946102;28;20047;-62
2022/10/25 04:38:39;;;;;;;32.85;3.53;;;;;;;;;;4942667;29;20055;-62
2022/10/25 04:41:07;;;;;;;30.05;3.35;;;;;;;;;;4949595;29;20055;-62
2022/10/25 04:43:34;;;;;;;22.63;2.85;;;;;;;;;;4947439;29;20051;-62
2022/10/25 04:46:01;;;;;;;21.05;3.03;;;;;;;;;;4934003;29;20093;-62
2022/10/25 04:48:28;;;;;;;24.83;3.45;;;;;;;;;;4945448;29;20047;-62
2022/10/25 04:50:55;;;;;;;26.35;4.32;;;;;;;;;;4940100;29;20083;-63
2022/10/25 04:53:24;;;;;;;29.15;3.75;;;;;;;;;;4946773;29;20082;-62
2022/10/25 04:55:56;;;;;;;24.40;3.47;;;;;;;;;;4949563;29;20051;-63
2022/10/25 04:58:23;;;;;;;23.35;3.53;;;;;;;;;;4946520;29;20059;-62
2022/10/25 05:00:51;;;;;;;28.17;3.65;;;;;;;;;;4949225;29;20051;-62
2022/10/25 05:03:18;;;;;;;20.70;3.22;;;;;;;;;;4944612;28;20055;-63
2022/10/25 05:05:45;;;;;;;27.27;3.90;;;;;;;;;;4946499;29;20063;-63
2022/10/25 05:08:13;;;;;;;21.52;5.22;;;;;;;;;;4948538;29;20063;-62
2022/10/25 05:10:41;;;;;;;26.00;3.90;;;;;;;;;;4943377;29;20106;-62
2022/10/25 05:13:09;;;;;;;27.83;3.85;;;;;;;;;;4930760;29;20082;-63
2022/10/25 05:15:36;;;;;;;22.88;3.50;;;;;;;;;;4928647;29;20062;-62
2022/10/25 05:18:03;;;;;;;28.40;4.53;;;;;;;;;;4947316;29;20084;-63
2022/10/25 05:20:30;;;;;;;28.17;3.83;;;;;;;;;;4932801;29;20051;-62
2022/10/25 05:22:57;;;;;;;22.45;4.22;;;;;;;;;;4948808;29;20102;-62
2022/10/25 05:25:25;;;;;;;28.25;4.43;;;;;;;;;;4926130;29;20526;-63
2022/10/25 05:27:53;;;;;;;32.50;4.15;;;;;;;;;;4945687;29;20055;-62
2022/10/25 05:30:20;;;;;;;31.70;4.00;;;;;;;;;;4941702;29;20655;-62
2022/10/25 05:32:49;;;;;;;25.58;4.03;;;;;;;;;;4948690;29;20058;-63
2022/10/25 05:35:16;;;;;;;25.23;3.92;;;;;;;;;;4937378;29;20062;-63
2022/10/25 05:37:44;;;;;;;25.02;4.18;;;;;;;;;;4939620;29;20107;-62
2022/10/25 05:40:11;;;;;;;33.72;3.70;;;;;;;;;;4936116;29;20048;-62
2022/10/25 05:42:38;;;;;;;29.90;4.35;;;;;;;;;;4937903;29;20111;-63
2022/10/25 05:45:08;;;;;;;27.80;3.25;;;;;;;;;;4946728;29;20490;-62
2022/10/25 05:47:35;;;;;;;29.17;4.00;;;;;;;;;;4946743;28;20051;-62
2022/10/25 05:50:02;;;;;;;26.17;3.38;;;;;;;;;;4936167;29;20754;-62
2022/10/25 05:52:29;;;;;;;29.40;3.67;;;;;;;;;;4944341;29;20063;-62
2022/10/25 05:54:56;;;;;;;25.63;4.63;;;;;;;;;;4942087;29;20074;-63
2022/10/25 05:57:24;;;;;;;22.85;3.50;;;;;;;;;;4947058;29;20457;-63
2022/10/25 05:59:51;;;;;;;22.90;3.50;;;;;;;;;;4947612;29;20422;-63
2022/10/25 06:02:19;;;;;;;31.45;3.97;;;;;;;;;;4941056;29;20059;-63
2022/10/25 06:04:47;;;;;;;23.73;3.50;;;;;;;;;;4927075;29;20126;-63
2022/10/25 06:07:14;;;;;;;21.23;3.35;;;;;;;;;;4947413;29;20047;-63
2022/10/25 06:09:41;;;;;;;26.10;3.80;;;;;;;;;;4947543;29;20188;-63
2022/10/25 06:12:08;;;;;;;22.13;3.25;;;;;;;;;;4944822;29;20059;-62
2022/10/25 06:14:35;;;;;;;24.90;3.95;;;;;;;;;;4935513;29;20048;-63
2022/10/25 06:17:03;;;;;;;33.38;4.78;;;;;;;;;;4947156;29;20058;-62
2022/10/25 06:19:31;;;;;;;26.63;4.00;;;;;;;;;;4941680;29;20059;-62
2022/10/25 06:21:59;;;;;;;15.48;3.05;;;;;;;;;;4944119;29;20091;-63
2022/10/25 06:24:27;;;;;;;26.20;3.92;;;;;;;;;;4944436;29;20202;-63
2022/10/25 06:26:54;;;;;;;19.63;3.80;;;;;;;;;;4926884;29;20062;-63
2022/10/25 06:29:21;;;;;;;28.80;5.03;;;;;;;;;;4935495;29;20147;-62
2022/10/25 06:31:48;;;;;;;29.70;4.40;;;;;;;;;;4941573;29;20059;-62
2022/10/25 06:34:15;;;;;;;35.88;4.03;;;;;;;;;;4946422;29;20622;-62
2022/10/25 06:36:44;;;;;;;28.38;4.15;;;;;;;;;;4927196;29;20059;-62
2022/10/25 06:39:11;;;;;;;34.53;4.63;;;;;;;;;;4946458;29;20644;-62
2022/10/25 06:41:39;;;;;;;21.45;4.65;;;;;;;;;;4941046;29;20667;-62
2022/10/25 06:44:07;;;;;;;28.38;4.32;;;;;;;;;;4942391;29;20062;-63
2022/10/25 06:46:35;;;;;;;25.30;4.32;;;;;;;;;;4937007;29;20052;-63
2022/10/25 06:49:04;;;;;;;24.25;5.07;;;;;;;;;;4942586;29;20127;-63
2022/10/25 06:51:32;;;;;;;27.08;4.00;;;;;;;;;;4944586;29;20039;-62
2022/10/25 06:54:04;;;;;;;33.95;3.90;;;;;;;;;;4947332;29;20126;-62
2022/10/25 06:56:31;;;;;;;27.42;4.93;;;;;;;;;;4927757;29;20828;-62
2022/10/25 06:58:58;;;;;;;22.15;3.65;;;;;;;;;;4942653;28;20047;-63
2022/10/25 07:01:26;;;;;;;32.20;4.38;;;;;;;;;;4946510;29;20506;-62
2022/10/25 07:03:54;;;;;;;30.33;4.25;;;;;;;;;;4943224;29;20478;-62
2022/10/25 07:06:22;;;;;;;25.13;4.22;;;;;;;;;;4943787;29;20079;-62
2022/10/25 07:08:52;;;;;;;28.00;4.22;;;;;;;;;;4946178;29;20102;-63
2022/10/25 07:11:21;;;;;;;24.70;4.25;;;;;;;;;;4937674;29;20448;-63
2022/10/25 07:13:48;;;;;;;25.05;4.60;;;;;;;;;;4946172;29;20042;-63
2022/10/25 07:16:17;;;;;;;27.60;4.88;;;;;;;;;;4940564;29;20043;-63
2022/10/25 07:18:44;;;;;;;19.83;4.20;;;;;;;;;;4926896;29;20055;-62
2022/10/25 07:21:12;;;;;;;26.27;5.28;;;;;;;;;;4945323;29;20103;-63
2022/10/25 07:23:41;;;;;;;26.70;4.60;;;;;;;;;;4944215;29;20051;-63
2022/10/25 07:26:09;;;;;;;29.20;5.30;;;;;;;;;;4946141;29;20126;-62
2022/10/25 07:28:38;;;;;;;25.38;4.95;;;;;;;;;;4946228;29;20767;-62
2022/10/25 07:31:05;;;;;;;24.63;4.60;;;;;;;;;;4941311;29;20736;-62
2022/10/25 07:33:32;;;;;;;20.73;4.53;;;;;;;;;;4945799;29;20062;-62
2022/10/25 07:36:00;;;;;;;20.27;4.45;;;;;;;;;;4945538;29;20054;-63
2022/10/25 07:38:27;;;;;;;27.52;4.82;;;;;;;;;;4944928;29;20057;-62
2022/10/25 07:40:57;;;;;;;25.63;5.85;;;;;;;;;;4945370;29;20043;-62
2022/10/25 07:43:25;;;;;;;31.33;5.30;;;;;;;;;;4936951;29;20157;-62
2022/10/25 07:45:54;;;;;;;30.85;5.50;;;;;;;;;;4941189;29;20058;-62
2022/10/25 07:48:22;;;;;;;26.63;5.25;;;;;;;;;;4926292;29;20074;-63
2022/10/25 07:50:49;;;;;;;28.73;5.22;;;;;;;;;;4921573;29;20107;-63
2022/10/25 07:53:16;;;;;;;30.70;4.80;;;;;;;;;;4941975;29;20066;-63
2022/10/25 07:55:43;;;;;;;25.30;5.00;;;;;;;;;;4946591;29;20087;-63
2022/10/25 07:58:11;;;;;;;28.48;5.10;;;;;;;;;;4946448;29;20062;-63
2022/10/25 08:00:39;;;;;;;25.05;5.10;;;;;;;;;;4941816;29;20075;-62
2022/10/25 08:03:07;;;;;;;26.40;5.53;;;;;;;;;;4941398;28;20115;-62
2022/10/25 08:05:34;;;;;;;24.02;4.97;;;;;;;;;;4945153;29;20047;-63
2022/10/25 08:08:03;;;;;;;26.17;5.15;;;;;;;;;;4944248;29;20078;-62
2022/10/25 08:10:30;;;;;;;25.55;5.80;;;;;;;;;;4935516;29;20051;-62
2022/10/25 08:12:58;;;;;;;27.83;5.28;;;;;;;;;;4923216;29;20062;-63
2022/10/25 08:15:25;;;;;;;19.83;4.80;;;;;;;;;;4922350;29;20051;-63
2022/10/25 08:17:57;;;;;;;21.52;4.88;;;;;;;;;;4945238;29;20054;-62
2022/10/25 08:20:26;;;;;;;20.33;4.80;;;;;;;;;;4948810;29;20043;-63
2022/10/25 08:22:57;;;;;;;21.38;6.22;;;;;;;;;;4927757;29;20059;-63
2022/10/25 08:25:24;;;;;;;24.60;4.15;;;;;;;;;;4949586;29;20461;-63
2022/10/25 08:27:52;;;;;;;24.13;4.57;;;;;;;;;;4947137;29;20051;-63
2022/10/25 08:30:19;;;;;;;20.58;4.47;;;;;;;;;;4944271;29;20647;-63
2022/10/25 08:32:46;;;;;;;19.10;4.80;;;;;;;;;;4936006;29;20071;-63
2022/10/25 08:35:14;;;;;;;25.67;4.80;;;;;;;;;;4946195;29;20062;-63
2022/10/25 08:37:43;;;;;;;23.50;4.57;;;;;;;;;;4948321;29;20058;-63
2022/10/25 08:40:17;;;;;;;24.30;4.88;;;;;;;;;;4947185;29;20059;-63
2022/10/25 08:42:50;;;;;;;23.23;4.10;;;;;;;;;;4945408;29;20044;-63
2022/10/25 08:45:20;;;;;;;21.92;4.80;;;;;;;;;;4950021;29;20055;-63
2022/10/25 08:47:48;;;;;;;21.33;4.40;;;;;;;;;;4946315;29;20494;-63
2022/10/25 08:50:19;;;;;;;27.27;4.38;;;;;;;;;;4949039;29;20113;-63
2022/10/25 08:52:52;;;;;;;22.13;3.97;;;;;;;;;;4948784;29;20557;-63
2022/10/25 08:55:21;;;;;;;22.42;3.92;;;;;;;;;;4944649;29;20098;-63
2022/10/25 08:57:49;;;;;;;25.55;4.20;;;;;;;;;;4948268;29;20055;-63
2022/10/25 09:00:19;;;;;;;20.98;4.18;;;;;;;;;;4928126;29;20047;-63
2022/10/25 09:02:49;;;;;;;22.52;3.85;;;;;;;;;;4942251;29;20047;-62
2022/10/25 09:05:19;;;;;;;16.08;3.67;;;;;;;;;;4948578;29;20054;-63
2022/10/25 09:07:54;;;;;;;18.55;3.72;;;;;;;;;;4943843;29;20058;-63
2022/10/25 09:10:26;;;;;;;19.92;3.13;;;;;;;;;;4947120;29;20498;-63
2022/10/25 09:12:56;;;;;;;20.85;3.47;;;;;;;;;;4943215;29;20154;-62
2022/10/25 09:15:29;;;;;;;25.55;3.58;;;;;;;;;;4945246;29;20467;-63
2022/10/25 09:17:56;;;;;;;26.83;3.65;;;;;;;;;;4944569;29;20043;-63
2022/10/25 09:20:26;;;;;;;19.15;3.50;;;;;;;;;;4947646;28;20110;-63
2022/10/25 09:22:59;;;;;;;20.92;3.80;;;;;;;;;;4944573;29;20103;-63
2022/10/25 09:25:29;;;;;;;15.48;2.88;;;;;;;;;;4947940;29;20040;-63
2022/10/25 09:27:59;;;;;;;24.40;3.40;;;;;;;;;;4946412;29;20153;-63
2022/10/25 09:30:28;;;;;;;17.90;3.10;;;;;;;;;;4945746;29;20050;-63
2022/10/25 09:32:56;;;;;;;20.20;3.72;;;;;;;;;;4947773;29;20679;-63
2022/10/25 09:35:25;;;;;;;19.90;3.20;;;;;;;;;;4945580;29;20102;-63
2022/10/25 09:37:53;;;;;;;20.73;3.22;;;;;;;;;;4929948;29;20063;-63
2022/10/25 09:40:24;;;;;;;15.98;2.72;;;;;;;;;;4945027;29;20062;-63
2022/10/25 09:42:53;;;;;;;18.98;2.83;;;;;;;;;;4927817;29;20055;-63
2022/10/25 09:45:23;;;;;;;15.48;2.50;;;;;;;;;;4945020;29;20056;-63
2022/10/25 09:47:53;;;;;;;17.60;2.22;;;;;;;;;;4943006;29;20107;-63
2022/10/25 09:50:24;;;;;;;21.77;2.17;;;;;;;;;;4947012;29;20059;-63
2022/10/25 09:52:59;;;;;;;16.38;2.45;;;;;;;;;;4945917;29;20047;-63
2022/10/25 09:55:32;;;;;;;14.93;2.42;;;;;;;;;;4946872;29;20051;-63
2022/10/25 09:57:59;;;;;;;16.10;1.70;;;;;;;;;;4929670;29;20558;-63
2022/10/25 10:00:27;;;;;;;14.93;1.77;;;;;;;;;;4929108;29;20558;-63
2022/10/25 10:02:55;;;;;;;20.10;2.35;;;;;;;;;;4945675;28;20517;-63
2022/10/25 10:05:22;;;;;;;18.95;3.55;;;;;;;;;;4947885;29;20079;-63
2022/10/25 10:07:50;;;;;;;14.65;1.65;;;;;;;;;;4947797;29;20055;-63
2022/10/25 10:10:19;;;;;;;21.45;2.42;;;;;;;;;;4946546;29;20051;-63
2022/10/25 10:12:50;;;;;;;15.60;1.70;;;;;;;;;;4943627;29;20735;-63
2022/10/25 10:15:20;;;;;;;17.77;2.15;;;;;;;;;;4942584;29;20134;-63
2022/10/25 10:17:47;;;;;;;14.85;2.22;;;;;;;;;;4937820;29;20051;-63
2022/10/25 10:20:16;;;;;;;17.70;2.05;;;;;;;;;;4944706;29;20119;-63
2022/10/25 10:22:48;;;;;;;18.45;2.10;;;;;;;;;;4942996;29;20058;-63
2022/10/25 10:25:19;;;;;;;13.70;1.75;;;;;;;;;;4942376;29;20051;-63
2022/10/25 10:27:49;;;;;;;20.63;2.47;;;;;;;;;;4946281;29;20051;-63
2022/10/25 10:30:22;;;;;;;12.73;1.58;;;;;;;;;;4929941;29;20058;-63
2022/10/25 10:32:53;;;;;;;12.20;1.90;;;;;;;;;;4946796;28;20043;-63
2022/10/25 10:35:26;;;;;;;18.58;2.25;;;;;;;;;;4926754;29;20371;-63
2022/10/25 10:37:53;;;;;;;13.85;1.95;;;;;;;;;;4945877;29;20059;-63
2022/10/25 10:40:24;;;;;;;14.98;1.80;;;;;;;;;;4946679;29;20062;-64
2022/10/25 10:42:53;;;;;;;11.68;2.00;;;;;;;;;;4943673;29;20051;-63
2022/10/25 10:45:21;;;;;;;15.05;2.00;;;;;;;;;;4945470;29;20134;-63
2022/10/25 10:47:55;;;;;;;11.40;1.85;;;;;;;;;;4942350;29;20066;-63
2022/10/25 10:50:24;;;;;;;20.98;2.42;;;;;;;;;;4945469;29;20059;-63
2022/10/25 10:52:55;;;;;;;12.45;1.70;;;;;;;;;;4947225;29;20047;-63
2022/10/25 10:55:26;;;;;;;16.15;1.80;;;;;;;;;;4947329;29;20057;-63
2022/10/25 10:57:55;;;;;;;17.13;1.83;;;;;;;;;;4942115;29;20059;-64
2022/10/25 11:00:23;;;;;;;15.18;2.05;;;;;;;;;;4945757;29;20062;-63
2022/10/25 11:02:51;;;;;;;14.02;1.88;;;;;;;;;;4926243;28;20070;-63
2022/10/25 11:05:20;;;;;;;11.27;1.65;;;;;;;;;;4946080;29;20059;-63
2022/10/25 11:07:54;;;;;;;15.82;2.00;;;;;;;;;;4945157;29;20051;-63
2022/10/25 11:10:23;;;;;;;13.85;2.47;;;;;;;;;;4944183;29;20052;-63
2022/10/25 11:13:06;;;;;;;12.57;1.50;;;;;;;;;;4944147;29;20411;-63
2022/10/25 11:15:37;;;;;;;13.98;1.63;;;;;;;;;;4928851;29;20067;-63
2022/10/25 11:18:05;;;;;;;18.33;2.97;;;;;;;;;;4943579;29;20059;-64
2022/10/25 11:20:35;;;;;;;12.07;1.73;;;;;;;;;;4939027;29;20066;-63
2022/10/25 11:23:05;;;;;;;15.68;1.52;;;;;;;;;;4944809;29;20047;-63
2022/10/25 11:25:38;;;;;;;10.30;1.80;;;;;;;;;;4944854;29;20051;-63
2022/10/25 11:28:23;;;;;;;18.63;1.80;;;;;;;;;;4943153;29;20055;-63
2022/10/25 11:30:58;;;;;;;17.83;2.15;;;;;;;;;;4941710;29;20063;-64
2022/10/25 11:33:52;;;;;;;16.65;1.90;;;;;;;;;;4923354;29;20066;-63
2022/10/25 11:36:23;;;;;;;15.88;2.33;;;;;;;;;;4894824;29;20047;-63
2022/10/25 11:39:01;;;;;;;15.25;1.98;;;;;;;;;;4937186;29;20067;-63
2022/10/25 11:41:32;;;;;;;20.17;2.47;;;;;;;;;;4946708;29;20099;-63
2022/10/25 11:44:11;;;;;;;13.88;1.85;;;;;;;;;;4929277;29;20051;-63
2022/10/25 11:46:46;;;;;;;11.25;1.48;;;;;;;;;;4945128;29;20862;-64
2022/10/25 11:49:23;;;;;;;16.00;2.10;;;;;;;;;;4946134;29;20498;-64
2022/10/25 11:51:58;;;;;;;14.20;1.65;;;;;;;;;;4945163;29;20051;-63
2022/10/25 11:54:32;;;;;;;14.73;1.80;;;;;;;;;;4946084;29;20055;-63
2022/10/25 11:57:05;;;;;;;12.13;1.90;;;;;;;;;;4940130;29;20723;-63
2022/10/25 11:59:36;;;;;;;12.73;1.50;;;;;;;;;;4940180;29;20055;-63
2022/10/25 12:02:13;;;;;;;9.45;1.52;;;;;;;;;;4929641;29;20417;-63
2022/10/25 12:04:51;;;;;;;10.98;1.52;;;;;;;;;;4943840;29;21352;-63
2022/10/25 12:07:21;;;;;;;15.02;1.58;;;;;;;;;;4946733;29;20736;-63
2022/10/25 12:09:55;;;;;;;12.75;1.95;;;;;;;;;;4937623;29;20044;-64
2022/10/25 12:12:24;;;;;;;14.20;2.15;;;;;;;;;;4941351;29;20059;-63
2022/10/25 12:14:53;;;;;;;10.10;1.45;;;;;;;;;;4942218;29;20043;-63
2022/10/25 12:17:25;;;;;;;16.00;1.67;;;;;;;;;;4946616;29;20059;-63
2022/10/25 12:19:53;;;;;;;12.02;1.70;;;;;;;;;;4945462;29;20506;-63
2022/10/25 12:22:22;;;;;;;12.10;1.52;;;;;;;;;;4939797;29;20498;-63
2022/10/25 12:24:52;;;;;;;15.13;2.25;;;;;;;;;;4942928;29;20714;-63
2022/10/25 12:27:21;;;;;;;10.57;1.20;;;;;;;;;;4946547;29;20052;-64
2022/10/25 12:29:51;;;;;;;13.85;2.00;;;;;;;;;;4944195;29;20044;-63
2022/10/25 12:32:20;;;;;;;13.88;2.55;;;;;;;;;;4941764;29;20376;-64
2022/10/25 12:34:51;;;;;;;12.80;1.38;;;;;;;;;;4943978;29;20047;-64
2022/10/25 12:37:24;;;;;;;12.73;1.63;;;;;;;;;;4939568;29;20047;-63
2022/10/25 12:39:52;;;;;;;13.30;1.80;;;;;;;;;;4947075;29;20043;-63
2022/10/25 12:42:22;;;;;;;14.07;1.65;;;;;;;;;;4928501;29;20058;-63
2022/10/25 12:44:57;;;;;;;10.48;1.65;;;;;;;;;;4943315;29;20106;-63
2022/10/25 12:47:30;;;;;;;13.30;2.10;;;;;;;;;;4942985;29;20055;-63
2022/10/25 12:50:06;;;;;;;10.95;1.60;;;;;;;;;;4946447;29;20565;-63
2022/10/25 12:52:34;;;;;;;11.40;1.42;;;;;;;;;;4943184;29;20059;-63
2022/10/25 12:55:17;;;;;;;10.02;1.77;;;;;;;;;;4941712;28;20048;-63
2022/10/25 12:57:48;;;;;;;13.90;1.90;;;;;;;;;;4945355;29;20063;-63
2022/10/25 13:00:16;;;;;;;10.13;1.65;;;;;;;;;;4944917;29;20054;-64
2022/10/25 13:02:54;;;;;;;10.80;1.80;;;;;;;;;;4943536;29;20103;-63
2022/10/25 13:05:41;;;;;;;13.25;1.60;;;;;;;;;;4947079;29;20050;-63
2022/10/25 13:08:08;;;;;;;13.48;1.80;;;;;;;;;;4948555;29;20051;-63
2022/10/25 13:10:40;;;;;;;18.25;2.17;;;;;;;;;;4942083;29;20059;-63
2022/10/25 13:13:08;;;;;;;10.07;1.52;;;;;;;;;;4945926;29;20050;-64
2022/10/25 13:15:38;;;;;;;8.93;1.35;;;;;;;;;;4938931;29;20810;-63
2022/10/25 13:18:06;;;;;;;11.27;1.33;;;;;;;;;;4949224;29;20055;-63
2022/10/25 13:20:48;;;;;;;10.40;1.45;;;;;;;;;;4941114;29;20540;-63
2022/10/25 13:23:34;;;;;;;11.20;1.77;;;;;;;;;;4949043;29;20462;-63
2022/10/25 13:26:04;;;;;;;14.73;1.40;;;;;;;;;;4932662;29;20043;-64
2022/10/25 13:28:32;;;;;;;15.30;2.90;;;;;;;;;;4949800;29;20502;-63
2022/10/25 13:31:14;;;;;;;13.07;1.80;;;;;;;;;;4929352;29;20059;-63
2022/10/25 13:33:41;;;;;;;10.13;1.33;;;;;;;;;;4933602;29;20410;-63
2022/10/25 13:36:10;;;;;;;8.02;1.25;;;;;;;;;;4948906;29;20050;-63
2022/10/25 13:38:39;;;;;;;14.93;1.85;;;;;;;;;;4948241;29;20055;-63
2022/10/25 13:41:12;;;;;;;13.52;2.03;;;;;;;;;;4947203;29;20387;-63
2022/10/25 13:43:55;;;;;;;16.40;2.20;;;;;;;;;;4946831;29;20509;-64
2022/10/25 13:46:24;;;;;;;12.47;1.70;;;;;;;;;;4948400;29;20047;-63
2022/10/25 13:48:53;;;;;;;11.25;1.60;;;;;;;;;;4945706;29;20106;-64
2022/10/25 13:51:22;;;;;;;13.82;1.55;;;;;;;;;;4923938;29;20091;-63
2022/10/25 13:53:50;;;;;;;15.65;2.13;;;;;;;;;;4929418;29;20438;-63
2022/10/25 13:56:19;;;;;;;10.63;1.58;;;;;;;;;;4945525;29;20499;-63
2022/10/25 13:58:48;;;;;;;12.30;1.52;;;;;;;;;;4948680;29;20073;-63
2022/10/25 14:01:33;;;;;;;11.48;1.77;;;;;;;;;;4948571;29;20517;-64
2022/10/25 14:04:05;;;;;;;10.90;1.45;;;;;;;;;;4948235;28;20054;-63
2022/10/25 14:06:34;;;;;;;15.05;1.48;;;;;;;;;;4946647;29;20043;-64
2022/10/25 14:09:07;;;;;;;16.75;1.95;;;;;;;;;;4948579;29;20150;-64
2022/10/25 14:11:40;;;;;;;11.40;1.70;;;;;;;;;;4946807;29;20062;-64
2022/10/25 14:14:14;;;;;;;10.27;1.70;;;;;;;;;;4949215;29;20059;-64
2022/10/25 14:16:44;;;;;;;16.10;2.55;;;;;;;;;;4948054;29;20407;-63
2022/10/25 14:19:15;;;;;;;16.17;1.55;;;;;;;;;;4945436;29;20577;-63
2022/10/25 14:21:46;;;;;;;14.50;1.80;;;;;;;;;;4947739;29;20048;-63
2022/10/25 14:24:15;;;;;;;13.93;1.85;;;;;;;;;;4942321;29;20106;-64
2022/10/25 14:26:50;;;;;;;12.20;2.00;;;;;;;;;;4944859;29;20103;-63
2022/10/25 14:29:19;;;;;;;12.80;2.65;;;;;;;;;;4943575;29;20051;-63
2022/10/25 14:31:46;;;;;;;15.80;3.03;;;;;;;;;;4938088;29;20086;-64
2022/10/25 14:34:19;;;;;;;15.40;2.35;;;;;;;;;;4945718;29;20051;-64
2022/10/25 14:36:50;;;;;;;10.48;2.63;;;;;;;;;;4942237;29;20163;-63
2022/10/25 14:39:18;;;;;;;15.98;2.20;;;;;;;;;;4941992;29;20640;-63
2022/10/25 14:41:51;;;;;;;11.30;2.95;;;;;;;;;;4942645;29;20052;-63